sensor_id;sensor_type;location;lat;lon;timestamp;P1;durP1;ratioP1;P2;durP2;ratioP2
33696;SDS011;20031;43.416;23.232;2022-07-22T00:01:45;10.18;;;3.25;;
33696;SDS011;20031;43.416;23.232;2022-07-22T00:04:11;9.07;;;3.50;;
33696;SDS011;20031;43.416;23.232;2022-07-22T00:06:36;8.63;;;3.38;;
33696;SDS011;20031;43.416;23.232;2022-07-22T00:09:03;10.55;;;3.08;;
33696;SDS011;20031;43.416;23.232;2022-07-22T00:11:28;7.10;;;3.20;;
33696;SDS011;20031;43.416;23.232;2022-07-22T00:13:54;8.18;;;3.40;;
33696;SDS011;20031;43.416;23.232;2022-07-22T00:16:20;17.58;;;3.45;;
33696;SDS011;20031;43.416;23.232;2022-07-22T00:18:45;6.85;;;3.13;;
33696;SDS011;20031;43.416;23.232;2022-07-22T00:21:10;11.65;;;3.60;;
33696;SDS011;20031;43.416;23.232;2022-07-22T00:23:36;8.75;;;3.42;;
33696;SDS011;20031;43.416;23.232;2022-07-22T00:26:02;14.68;;;3.47;;
33696;SDS011;20031;43.416;23.232;2022-07-22T00:28:28;9.65;;;3.60;;
33696;SDS011;20031;43.416;23.232;2022-07-22T00:30:53;8.90;;;3.30;;
33696;SDS011;20031;43.416;23.232;2022-07-22T00:33:18;12.75;;;3.35;;
33696;SDS011;20031;43.416;23.232;2022-07-22T00:35:44;10.18;;;3.67;;
33696;SDS011;20031;43.416;23.232;2022-07-22T00:38:09;11.20;;;3.60;;
33696;SDS011;20031;43.416;23.232;2022-07-22T00:40:35;7.97;;;3.25;;
33696;SDS011;20031;43.416;23.232;2022-07-22T00:43:00;11.70;;;3.45;;
33696;SDS011;20031;43.416;23.232;2022-07-22T00:45:26;9.20;;;3.60;;
33696;SDS011;20031;43.416;23.232;2022-07-22T00:47:52;11.55;;;3.70;;
33696;SDS011;20031;43.416;23.232;2022-07-22T00:50:17;12.88;;;3.30;;
33696;SDS011;20031;43.416;23.232;2022-07-22T00:52:44;8.18;;;3.25;;
33696;SDS011;20031;43.416;23.232;2022-07-22T00:55:11;6.30;;;3.50;;
33696;SDS011;20031;43.416;23.232;2022-07-22T00:57:38;12.90;;;3.40;;
33696;SDS011;20031;43.416;23.232;2022-07-22T01:00:04;9.45;;;3.05;;
33696;SDS011;20031;43.416;23.232;2022-07-22T01:02:32;9.93;;;3.40;;
33696;SDS011;20031;43.416;23.232;2022-07-22T01:04:57;5.88;;;3.20;;
33696;SDS011;20031;43.416;23.232;2022-07-22T01:07:23;9.90;;;3.40;;
33696;SDS011;20031;43.416;23.232;2022-07-22T01:09:49;10.00;;;3.72;;
33696;SDS011;20031;43.416;23.232;2022-07-22T01:12:14;10.82;;;3.53;;
33696;SDS011;20031;43.416;23.232;2022-07-22T01:14:39;8.15;;;3.25;;
33696;SDS011;20031;43.416;23.232;2022-07-22T01:17:05;16.10;;;3.88;;
33696;SDS011;20031;43.416;23.232;2022-07-22T01:19:31;14.68;;;3.78;;
33696;SDS011;20031;43.416;23.232;2022-07-22T01:21:56;16.60;;;3.63;;
33696;SDS011;20031;43.416;23.232;2022-07-22T01:24:22;8.77;;;3.42;;
33696;SDS011;20031;43.416;23.232;2022-07-22T01:26:47;20.25;;;3.85;;
33696;SDS011;20031;43.416;23.232;2022-07-22T01:29:13;10.85;;;3.47;;
33696;SDS011;20031;43.416;23.232;2022-07-22T01:31:38;8.70;;;4.63;;
33696;SDS011;20031;43.416;23.232;2022-07-22T01:34:04;19.38;;;4.22;;
33696;SDS011;20031;43.416;23.232;2022-07-22T01:36:29;14.35;;;3.67;;
33696;SDS011;20031;43.416;23.232;2022-07-22T01:38:55;13.15;;;4.05;;
33696;SDS011;20031;43.416;23.232;2022-07-22T01:41:21;8.88;;;4.07;;
33696;SDS011;20031;43.416;23.232;2022-07-22T01:43:47;10.45;;;4.53;;
33696;SDS011;20031;43.416;23.232;2022-07-22T01:46:12;13.93;;;4.72;;
33696;SDS011;20031;43.416;23.232;2022-07-22T01:48:40;10.57;;;4.00;;
33696;SDS011;20031;43.416;23.232;2022-07-22T01:51:05;11.60;;;3.65;;
33696;SDS011;20031;43.416;23.232;2022-07-22T01:53:31;9.30;;;3.90;;
33696;SDS011;20031;43.416;23.232;2022-07-22T01:55:57;12.57;;;3.63;;
33696;SDS011;20031;43.416;23.232;2022-07-22T01:58:22;7.65;;;3.55;;
33696;SDS011;20031;43.416;23.232;2022-07-22T02:00:48;8.23;;;2.88;;
33696;SDS011;20031;43.416;23.232;2022-07-22T02:03:14;11.65;;;3.45;;
33696;SDS011;20031;43.416;23.232;2022-07-22T02:05:40;10.23;;;3.78;;
33696;SDS011;20031;43.416;23.232;2022-07-22T02:08:06;10.35;;;3.53;;
33696;SDS011;20031;43.416;23.232;2022-07-22T02:10:34;12.60;;;3.60;;
33696;SDS011;20031;43.416;23.232;2022-07-22T02:13:00;9.10;;;3.63;;
33696;SDS011;20031;43.416;23.232;2022-07-22T02:15:26;8.07;;;3.90;;
33696;SDS011;20031;43.416;23.232;2022-07-22T02:17:52;12.00;;;4.00;;
33696;SDS011;20031;43.416;23.232;2022-07-22T02:20:18;10.23;;;3.60;;
33696;SDS011;20031;43.416;23.232;2022-07-22T02:22:44;10.65;;;4.22;;
33696;SDS011;20031;43.416;23.232;2022-07-22T02:25:09;11.32;;;3.65;;
33696;SDS011;20031;43.416;23.232;2022-07-22T02:27:35;13.15;;;3.70;;
33696;SDS011;20031;43.416;23.232;2022-07-22T02:30:01;15.63;;;3.92;;
33696;SDS011;20031;43.416;23.232;2022-07-22T02:32:26;9.73;;;3.58;;
33696;SDS011;20031;43.416;23.232;2022-07-22T02:34:52;8.95;;;3.47;;
33696;SDS011;20031;43.416;23.232;2022-07-22T02:37:17;8.85;;;3.50;;
33696;SDS011;20031;43.416;23.232;2022-07-22T02:39:43;18.67;;;3.58;;
33696;SDS011;20031;43.416;23.232;2022-07-22T02:42:08;12.40;;;3.35;;
33696;SDS011;20031;43.416;23.232;2022-07-22T02:44:34;13.40;;;4.13;;
33696;SDS011;20031;43.416;23.232;2022-07-22T02:46:59;9.50;;;3.90;;
33696;SDS011;20031;43.416;23.232;2022-07-22T02:49:25;13.07;;;4.13;;
33696;SDS011;20031;43.416;23.232;2022-07-22T02:51:50;26.40;;;5.15;;
33696;SDS011;20031;43.416;23.232;2022-07-22T02:54:16;14.32;;;3.67;;
33696;SDS011;20031;43.416;23.232;2022-07-22T02:56:41;14.02;;;4.07;;
33696;SDS011;20031;43.416;23.232;2022-07-22T02:59:07;12.43;;;3.72;;
33696;SDS011;20031;43.416;23.232;2022-07-22T03:01:32;14.80;;;3.60;;
33696;SDS011;20031;43.416;23.232;2022-07-22T03:03:57;12.77;;;3.60;;
33696;SDS011;20031;43.416;23.232;2022-07-22T03:06:23;38.50;;;3.42;;
33696;SDS011;20031;43.416;23.232;2022-07-22T03:08:48;12.13;;;3.47;;
33696;SDS011;20031;43.416;23.232;2022-07-22T03:11:14;14.57;;;3.45;;
33696;SDS011;20031;43.416;23.232;2022-07-22T03:13:39;15.95;;;3.78;;
33696;SDS011;20031;43.416;23.232;2022-07-22T03:16:05;12.60;;;3.92;;
33696;SDS011;20031;43.416;23.232;2022-07-22T03:18:30;13.25;;;3.58;;
33696;SDS011;20031;43.416;23.232;2022-07-22T03:20:56;12.70;;;3.85;;
33696;SDS011;20031;43.416;23.232;2022-07-22T03:23:21;16.80;;;3.78;;
33696;SDS011;20031;43.416;23.232;2022-07-22T03:25:47;15.90;;;4.25;;
33696;SDS011;20031;43.416;23.232;2022-07-22T03:28:12;21.73;;;4.13;;
33696;SDS011;20031;43.416;23.232;2022-07-22T03:30:38;40.13;;;4.63;;
33696;SDS011;20031;43.416;23.232;2022-07-22T03:33:03;29.92;;;5.10;;
33696;SDS011;20031;43.416;23.232;2022-07-22T03:35:29;26.02;;;5.05;;
33696;SDS011;20031;43.416;23.232;2022-07-22T03:37:54;26.20;;;4.43;;
33696;SDS011;20031;43.416;23.232;2022-07-22T03:40:20;37.10;;;4.88;;
33696;SDS011;20031;43.416;23.232;2022-07-22T03:42:45;47.65;;;5.70;;
33696;SDS011;20031;43.416;23.232;2022-07-22T03:45:11;21.27;;;4.28;;
33696;SDS011;20031;43.416;23.232;2022-07-22T03:47:36;24.85;;;5.00;;
33696;SDS011;20031;43.416;23.232;2022-07-22T03:50:02;26.45;;;4.40;;
33696;SDS011;20031;43.416;23.232;2022-07-22T03:52:28;25.25;;;4.13;;
33696;SDS011;20031;43.416;23.232;2022-07-22T03:54:54;23.52;;;4.70;;
33696;SDS011;20031;43.416;23.232;2022-07-22T03:57:19;24.80;;;4.32;;
33696;SDS011;20031;43.416;23.232;2022-07-22T03:59:45;27.02;;;4.75;;
33696;SDS011;20031;43.416;23.232;2022-07-22T04:02:11;22.55;;;4.63;;
33696;SDS011;20031;43.416;23.232;2022-07-22T04:04:36;19.40;;;4.38;;
33696;SDS011;20031;43.416;23.232;2022-07-22T04:07:02;15.55;;;4.03;;
33696;SDS011;20031;43.416;23.232;2022-07-22T04:09:27;11.38;;;4.25;;
33696;SDS011;20031;43.416;23.232;2022-07-22T04:11:53;13.45;;;3.75;;
33696;SDS011;20031;43.416;23.232;2022-07-22T04:14:18;18.63;;;4.25;;
33696;SDS011;20031;43.416;23.232;2022-07-22T04:16:44;36.28;;;4.70;;
33696;SDS011;20031;43.416;23.232;2022-07-22T04:19:10;32.78;;;4.68;;
33696;SDS011;20031;43.416;23.232;2022-07-22T04:21:36;31.70;;;5.32;;
33696;SDS011;20031;43.416;23.232;2022-07-22T04:24:02;16.35;;;5.15;;
33696;SDS011;20031;43.416;23.232;2022-07-22T04:26:28;31.98;;;5.82;;
33696;SDS011;20031;43.416;23.232;2022-07-22T04:28:53;26.73;;;5.32;;
33696;SDS011;20031;43.416;23.232;2022-07-22T04:31:19;22.60;;;5.50;;
33696;SDS011;20031;43.416;23.232;2022-07-22T04:33:44;18.88;;;7.03;;
33696;SDS011;20031;43.416;23.232;2022-07-22T04:36:10;59.42;;;22.13;;
33696;SDS011;20031;43.416;23.232;2022-07-22T04:38:35;46.60;;;15.32;;
33696;SDS011;20031;43.416;23.232;2022-07-22T04:41:01;27.67;;;10.00;;
33696;SDS011;20031;43.416;23.232;2022-07-22T04:43:26;40.88;;;9.70;;
33696;SDS011;20031;43.416;23.232;2022-07-22T04:45:52;37.95;;;8.73;;
33696;SDS011;20031;43.416;23.232;2022-07-22T04:48:17;70.95;;;12.00;;
33696;SDS011;20031;43.416;23.232;2022-07-22T04:50:43;29.80;;;6.82;;
33696;SDS011;20031;43.416;23.232;2022-07-22T04:53:09;25.00;;;6.20;;
33696;SDS011;20031;43.416;23.232;2022-07-22T04:55:35;25.33;;;5.65;;
33696;SDS011;20031;43.416;23.232;2022-07-22T04:58:01;38.83;;;7.43;;
33696;SDS011;20031;43.416;23.232;2022-07-22T05:00:26;49.25;;;9.63;;
33696;SDS011;20031;43.416;23.232;2022-07-22T05:02:52;28.88;;;5.78;;
33696;SDS011;20031;43.416;23.232;2022-07-22T05:05:18;25.00;;;5.07;;
33696;SDS011;20031;43.416;23.232;2022-07-22T05:07:43;29.85;;;5.78;;
33696;SDS011;20031;43.416;23.232;2022-07-22T05:10:09;25.33;;;4.47;;
33696;SDS011;20031;43.416;23.232;2022-07-22T05:12:35;14.55;;;3.60;;
33696;SDS011;20031;43.416;23.232;2022-07-22T05:15:00;20.85;;;4.60;;
33696;SDS011;20031;43.416;23.232;2022-07-22T05:17:26;32.58;;;6.47;;
33696;SDS011;20031;43.416;23.232;2022-07-22T05:19:52;32.28;;;6.57;;
33696;SDS011;20031;43.416;23.232;2022-07-22T05:22:17;25.58;;;4.72;;
33696;SDS011;20031;43.416;23.232;2022-07-22T05:24:42;24.38;;;4.53;;
33696;SDS011;20031;43.416;23.232;2022-07-22T05:27:08;15.55;;;3.95;;
33696;SDS011;20031;43.416;23.232;2022-07-22T05:29:33;14.77;;;4.13;;
33696;SDS011;20031;43.416;23.232;2022-07-22T05:31:59;16.08;;;3.78;;
33696;SDS011;20031;43.416;23.232;2022-07-22T05:34:24;20.20;;;4.20;;
33696;SDS011;20031;43.416;23.232;2022-07-22T05:36:50;16.13;;;4.53;;
33696;SDS011;20031;43.416;23.232;2022-07-22T05:39:16;11.00;;;4.13;;
33696;SDS011;20031;43.416;23.232;2022-07-22T05:41:41;14.32;;;3.90;;
33696;SDS011;20031;43.416;23.232;2022-07-22T05:44:07;16.52;;;4.05;;
33696;SDS011;20031;43.416;23.232;2022-07-22T05:46:32;18.55;;;4.50;;
33696;SDS011;20031;43.416;23.232;2022-07-22T05:48:57;20.15;;;4.20;;
33696;SDS011;20031;43.416;23.232;2022-07-22T05:51:23;23.02;;;4.47;;
33696;SDS011;20031;43.416;23.232;2022-07-22T05:53:49;9.93;;;4.13;;
33696;SDS011;20031;43.416;23.232;2022-07-22T05:56:15;18.23;;;3.90;;
33696;SDS011;20031;43.416;23.232;2022-07-22T05:58:41;17.40;;;4.15;;
33696;SDS011;20031;43.416;23.232;2022-07-22T06:01:08;18.17;;;4.43;;
33696;SDS011;20031;43.416;23.232;2022-07-22T06:03:34;17.63;;;4.20;;
33696;SDS011;20031;43.416;23.232;2022-07-22T06:06:00;14.38;;;3.92;;
33696;SDS011;20031;43.416;23.232;2022-07-22T06:08:27;15.18;;;3.88;;
33696;SDS011;20031;43.416;23.232;2022-07-22T06:10:53;17.13;;;4.57;;
33696;SDS011;20031;43.416;23.232;2022-07-22T06:13:19;25.73;;;4.43;;
33696;SDS011;20031;43.416;23.232;2022-07-22T06:15:45;20.15;;;4.10;;
33696;SDS011;20031;43.416;23.232;2022-07-22T06:18:10;11.32;;;3.40;;
33696;SDS011;20031;43.416;23.232;2022-07-22T06:20:36;13.70;;;4.28;;
33696;SDS011;20031;43.416;23.232;2022-07-22T06:23:02;10.15;;;4.03;;
33696;SDS011;20031;43.416;23.232;2022-07-22T06:25:27;11.77;;;3.83;;
33696;SDS011;20031;43.416;23.232;2022-07-22T06:27:53;16.00;;;3.92;;
33696;SDS011;20031;43.416;23.232;2022-07-22T06:30:18;18.80;;;4.22;;
33696;SDS011;20031;43.416;23.232;2022-07-22T06:32:44;12.70;;;4.22;;
33696;SDS011;20031;43.416;23.232;2022-07-22T06:35:10;21.45;;;4.25;;
33696;SDS011;20031;43.416;23.232;2022-07-22T06:37:36;21.52;;;4.50;;
33696;SDS011;20031;43.416;23.232;2022-07-22T06:40:01;19.80;;;4.22;;
33696;SDS011;20031;43.416;23.232;2022-07-22T06:42:27;12.88;;;4.38;;
33696;SDS011;20031;43.416;23.232;2022-07-22T06:44:53;18.58;;;4.28;;
33696;SDS011;20031;43.416;23.232;2022-07-22T06:47:18;20.75;;;4.10;;
33696;SDS011;20031;43.416;23.232;2022-07-22T06:49:44;13.05;;;4.00;;
33696;SDS011;20031;43.416;23.232;2022-07-22T06:52:09;12.25;;;4.38;;
33696;SDS011;20031;43.416;23.232;2022-07-22T06:54:35;14.00;;;3.60;;
33696;SDS011;20031;43.416;23.232;2022-07-22T06:57:00;14.23;;;3.65;;
33696;SDS011;20031;43.416;23.232;2022-07-22T06:59:25;15.13;;;4.10;;
33696;SDS011;20031;43.416;23.232;2022-07-22T07:01:51;20.35;;;4.07;;
33696;SDS011;20031;43.416;23.232;2022-07-22T07:04:16;14.25;;;4.22;;
33696;SDS011;20031;43.416;23.232;2022-07-22T07:06:43;15.15;;;3.70;;
33696;SDS011;20031;43.416;23.232;2022-07-22T07:09:09;16.45;;;3.97;;
33696;SDS011;20031;43.416;23.232;2022-07-22T07:11:35;13.02;;;4.00;;
33696;SDS011;20031;43.416;23.232;2022-07-22T07:14:00;16.13;;;4.07;;
33696;SDS011;20031;43.416;23.232;2022-07-22T07:16:26;14.68;;;4.20;;
33696;SDS011;20031;43.416;23.232;2022-07-22T07:18:51;15.68;;;4.10;;
33696;SDS011;20031;43.416;23.232;2022-07-22T07:21:16;14.35;;;3.60;;
33696;SDS011;20031;43.416;23.232;2022-07-22T07:23:42;22.45;;;4.18;;
33696;SDS011;20031;43.416;23.232;2022-07-22T07:26:07;18.23;;;3.90;;
33696;SDS011;20031;43.416;23.232;2022-07-22T07:28:33;14.57;;;3.92;;
33696;SDS011;20031;43.416;23.232;2022-07-22T07:30:58;8.82;;;3.65;;
33696;SDS011;20031;43.416;23.232;2022-07-22T07:33:24;14.23;;;3.58;;
33696;SDS011;20031;43.416;23.232;2022-07-22T07:35:49;12.88;;;3.70;;
33696;SDS011;20031;43.416;23.232;2022-07-22T07:38:15;26.65;;;4.38;;
33696;SDS011;20031;43.416;23.232;2022-07-22T07:40:41;15.75;;;3.85;;
33696;SDS011;20031;43.416;23.232;2022-07-22T07:43:06;16.05;;;3.60;;
33696;SDS011;20031;43.416;23.232;2022-07-22T07:45:32;10.73;;;3.63;;
33696;SDS011;20031;43.416;23.232;2022-07-22T07:47:58;17.83;;;4.03;;
33696;SDS011;20031;43.416;23.232;2022-07-22T07:50:24;10.43;;;3.70;;
33696;SDS011;20031;43.416;23.232;2022-07-22T07:52:50;12.05;;;4.22;;
33696;SDS011;20031;43.416;23.232;2022-07-22T07:55:16;14.52;;;4.20;;
33696;SDS011;20031;43.416;23.232;2022-07-22T07:57:42;12.63;;;3.65;;
33696;SDS011;20031;43.416;23.232;2022-07-22T08:00:09;9.57;;;3.85;;
33696;SDS011;20031;43.416;23.232;2022-07-22T08:02:36;10.27;;;3.60;;
33696;SDS011;20031;43.416;23.232;2022-07-22T08:05:02;18.35;;;4.07;;
33696;SDS011;20031;43.416;23.232;2022-07-22T08:07:28;11.52;;;3.67;;
33696;SDS011;20031;43.416;23.232;2022-07-22T08:09:54;12.98;;;3.70;;
33696;SDS011;20031;43.416;23.232;2022-07-22T08:12:20;24.30;;;3.80;;
33696;SDS011;20031;43.416;23.232;2022-07-22T08:14:45;9.30;;;3.53;;
33696;SDS011;20031;43.416;23.232;2022-07-22T08:17:11;20.00;;;3.47;;
33696;SDS011;20031;43.416;23.232;2022-07-22T08:19:37;8.93;;;3.78;;
33696;SDS011;20031;43.416;23.232;2022-07-22T08:22:02;18.52;;;3.80;;
33696;SDS011;20031;43.416;23.232;2022-07-22T08:24:28;15.23;;;3.63;;
33696;SDS011;20031;43.416;23.232;2022-07-22T08:26:54;15.63;;;3.47;;
33696;SDS011;20031;43.416;23.232;2022-07-22T08:29:19;15.43;;;3.70;;
33696;SDS011;20031;43.416;23.232;2022-07-22T08:31:45;12.15;;;3.60;;
33696;SDS011;20031;43.416;23.232;2022-07-22T08:34:11;12.38;;;3.22;;
33696;SDS011;20031;43.416;23.232;2022-07-22T08:36:37;13.50;;;3.95;;
33696;SDS011;20031;43.416;23.232;2022-07-22T08:39:02;11.25;;;3.90;;
33696;SDS011;20031;43.416;23.232;2022-07-22T08:41:29;14.18;;;3.70;;
33696;SDS011;20031;43.416;23.232;2022-07-22T08:44:03;13.90;;;3.55;;
33696;SDS011;20031;43.416;23.232;2022-07-22T08:46:30;18.83;;;4.97;;
33696;SDS011;20031;43.416;23.232;2022-07-22T08:48:56;16.70;;;3.90;;
33696;SDS011;20031;43.416;23.232;2022-07-22T08:51:21;11.13;;;3.80;;
33696;SDS011;20031;43.416;23.232;2022-07-22T08:53:47;12.75;;;3.60;;
33696;SDS011;20031;43.416;23.232;2022-07-22T08:56:12;9.27;;;3.30;;
33696;SDS011;20031;43.416;23.232;2022-07-22T08:58:39;17.27;;;3.78;;
33696;SDS011;20031;43.416;23.232;2022-07-22T09:01:06;30.42;;;4.25;;
33696;SDS011;20031;43.416;23.232;2022-07-22T09:03:45;15.70;;;3.55;;
33696;SDS011;20031;43.416;23.232;2022-07-22T09:06:11;12.50;;;3.70;;
33696;SDS011;20031;43.416;23.232;2022-07-22T09:08:49;10.15;;;2.92;;
33696;SDS011;20031;43.416;23.232;2022-07-22T09:11:20;9.35;;;3.47;;
33696;SDS011;20031;43.416;23.232;2022-07-22T09:13:46;10.63;;;3.60;;
33696;SDS011;20031;43.416;23.232;2022-07-22T09:16:13;15.30;;;3.80;;
33696;SDS011;20031;43.416;23.232;2022-07-22T09:18:45;16.50;;;3.42;;
33696;SDS011;20031;43.416;23.232;2022-07-22T09:21:11;11.07;;;3.10;;
33696;SDS011;20031;43.416;23.232;2022-07-22T09:23:39;14.85;;;3.55;;
33696;SDS011;20031;43.416;23.232;2022-07-22T09:26:06;15.70;;;3.55;;
33696;SDS011;20031;43.416;23.232;2022-07-22T09:28:32;11.35;;;3.33;;
33696;SDS011;20031;43.416;23.232;2022-07-22T09:30:57;10.88;;;3.60;;
33696;SDS011;20031;43.416;23.232;2022-07-22T09:33:23;11.60;;;3.50;;
33696;SDS011;20031;43.416;23.232;2022-07-22T09:35:49;11.98;;;3.60;;
33696;SDS011;20031;43.416;23.232;2022-07-22T09:38:15;8.35;;;3.00;;
33696;SDS011;20031;43.416;23.232;2022-07-22T09:40:43;16.52;;;3.50;;
33696;SDS011;20031;43.416;23.232;2022-07-22T09:43:14;11.77;;;3.60;;
33696;SDS011;20031;43.416;23.232;2022-07-22T09:45:46;10.57;;;3.63;;
33696;SDS011;20031;43.416;23.232;2022-07-22T09:48:14;10.35;;;3.25;;
33696;SDS011;20031;43.416;23.232;2022-07-22T09:50:42;14.10;;;3.35;;
33696;SDS011;20031;43.416;23.232;2022-07-22T09:53:08;22.15;;;3.65;;
33696;SDS011;20031;43.416;23.232;2022-07-22T09:55:34;8.85;;;3.17;;
33696;SDS011;20031;43.416;23.232;2022-07-22T09:58:03;11.30;;;3.20;;
33696;SDS011;20031;43.416;23.232;2022-07-22T10:00:28;21.13;;;3.67;;
33696;SDS011;20031;43.416;23.232;2022-07-22T10:02:58;11.63;;;3.80;;
33696;SDS011;20031;43.416;23.232;2022-07-22T10:05:26;9.05;;;3.20;;
33696;SDS011;20031;43.416;23.232;2022-07-22T10:07:53;10.73;;;3.10;;
33696;SDS011;20031;43.416;23.232;2022-07-22T10:10:21;22.67;;;3.35;;
33696;SDS011;20031;43.416;23.232;2022-07-22T10:12:49;14.40;;;3.80;;
33696;SDS011;20031;43.416;23.232;2022-07-22T10:15:15;14.80;;;3.70;;
33696;SDS011;20031;43.416;23.232;2022-07-22T10:17:42;14.48;;;3.30;;
33696;SDS011;20031;43.416;23.232;2022-07-22T10:20:16;12.85;;;3.00;;
33696;SDS011;20031;43.416;23.232;2022-07-22T10:25:25;24.40;;;3.97;;
33696;SDS011;20031;43.416;23.232;2022-07-22T10:30:28;8.73;;;3.13;;
33696;SDS011;20031;43.416;23.232;2022-07-22T10:35:29;27.48;;;3.75;;
33696;SDS011;20031;43.416;23.232;2022-07-22T10:37:55;6.18;;;2.92;;
33696;SDS011;20031;43.416;23.232;2022-07-22T10:40:28;11.80;;;3.55;;
33696;SDS011;20031;43.416;23.232;2022-07-22T10:48:11;13.18;;;5.20;;
33696;SDS011;20031;43.416;23.232;2022-07-22T10:50:40;12.05;;;4.03;;
33696;SDS011;20031;43.416;23.232;2022-07-22T10:53:13;14.00;;;3.40;;
33696;SDS011;20031;43.416;23.232;2022-07-22T10:58:44;8.05;;;3.05;;
33696;SDS011;20031;43.416;23.232;2022-07-22T11:01:12;15.35;;;3.15;;
33696;SDS011;20031;43.416;23.232;2022-07-22T11:03:41;9.63;;;3.10;;
33696;SDS011;20031;43.416;23.232;2022-07-22T11:08:51;8.35;;;3.50;;
33696;SDS011;20031;43.416;23.232;2022-07-22T11:11:18;32.78;;;4.00;;
33696;SDS011;20031;43.416;23.232;2022-07-22T11:13:55;19.35;;;3.95;;
33696;SDS011;20031;43.416;23.232;2022-07-22T11:16:23;9.13;;;3.20;;
33696;SDS011;20031;43.416;23.232;2022-07-22T11:18:51;13.75;;;3.33;;
33696;SDS011;20031;43.416;23.232;2022-07-22T11:21:25;11.65;;;3.00;;
33696;SDS011;20031;43.416;23.232;2022-07-22T11:23:54;11.48;;;3.40;;
33696;SDS011;20031;43.416;23.232;2022-07-22T11:26:25;17.73;;;3.70;;
33696;SDS011;20031;43.416;23.232;2022-07-22T11:28:57;11.02;;;3.00;;
33696;SDS011;20031;43.416;23.232;2022-07-22T11:31:23;14.95;;;3.38;;
33696;SDS011;20031;43.416;23.232;2022-07-22T11:33:49;11.10;;;3.05;;
33696;SDS011;20031;43.416;23.232;2022-07-22T11:36:15;7.05;;;3.00;;
33696;SDS011;20031;43.416;23.232;2022-07-22T11:38:44;27.23;;;3.22;;
33696;SDS011;20031;43.416;23.232;2022-07-22T11:41:15;11.98;;;3.38;;
33696;SDS011;20031;43.416;23.232;2022-07-22T11:43:45;12.70;;;3.55;;
33696;SDS011;20031;43.416;23.232;2022-07-22T11:46:13;19.40;;;3.58;;
33696;SDS011;20031;43.416;23.232;2022-07-22T11:48:40;12.82;;;4.03;;
33696;SDS011;20031;43.416;23.232;2022-07-22T11:51:07;19.05;;;3.20;;
33696;SDS011;20031;43.416;23.232;2022-07-22T11:53:35;17.45;;;4.88;;
33696;SDS011;20031;43.416;23.232;2022-07-22T11:56:05;28.77;;;4.60;;
33696;SDS011;20031;43.416;23.232;2022-07-22T11:58:33;22.15;;;4.10;;
33696;SDS011;20031;43.416;23.232;2022-07-22T12:01:03;11.30;;;3.45;;
33696;SDS011;20031;43.416;23.232;2022-07-22T12:03:30;13.95;;;3.70;;
33696;SDS011;20031;43.416;23.232;2022-07-22T12:05:56;31.83;;;4.10;;
33696;SDS011;20031;43.416;23.232;2022-07-22T12:08:22;59.75;;;4.70;;
33696;SDS011;20031;43.416;23.232;2022-07-22T12:10:47;24.70;;;3.60;;
33696;SDS011;20031;43.416;23.232;2022-07-22T12:13:13;14.23;;;3.40;;
33696;SDS011;20031;43.416;23.232;2022-07-22T12:15:39;10.70;;;2.90;;
33696;SDS011;20031;43.416;23.232;2022-07-22T12:21:05;41.83;;;5.10;;
33696;SDS011;20031;43.416;23.232;2022-07-22T12:23:30;45.20;;;4.78;;
33696;SDS011;20031;43.416;23.232;2022-07-22T12:25:57;13.35;;;3.20;;
33696;SDS011;20031;43.416;23.232;2022-07-22T12:28:24;12.73;;;3.30;;
33696;SDS011;20031;43.416;23.232;2022-07-22T12:30:51;18.83;;;3.65;;
33696;SDS011;20031;43.416;23.232;2022-07-22T12:33:18;14.68;;;3.60;;
33696;SDS011;20031;43.416;23.232;2022-07-22T12:35:57;11.15;;;3.40;;
33696;SDS011;20031;43.416;23.232;2022-07-22T12:38:27;11.15;;;3.42;;
33696;SDS011;20031;43.416;23.232;2022-07-22T12:40:54;11.70;;;2.75;;
33696;SDS011;20031;43.416;23.232;2022-07-22T12:43:23;16.42;;;4.00;;
33696;SDS011;20031;43.416;23.232;2022-07-22T12:45:50;8.88;;;2.83;;
33696;SDS011;20031;43.416;23.232;2022-07-22T12:48:15;6.75;;;2.50;;
33696;SDS011;20031;43.416;23.232;2022-07-22T12:53:25;23.80;;;3.50;;
33696;SDS011;20031;43.416;23.232;2022-07-22T12:55:57;8.18;;;3.13;;
33696;SDS011;20031;43.416;23.232;2022-07-22T12:58:25;10.15;;;3.08;;
33696;SDS011;20031;43.416;23.232;2022-07-22T13:00:54;12.05;;;3.30;;
33696;SDS011;20031;43.416;23.232;2022-07-22T13:03:22;9.23;;;3.00;;
33696;SDS011;20031;43.416;23.232;2022-07-22T13:05:52;14.63;;;3.60;;
33696;SDS011;20031;43.416;23.232;2022-07-22T13:08:19;11.27;;;2.80;;
33696;SDS011;20031;43.416;23.232;2022-07-22T13:10:45;9.15;;;3.10;;
33696;SDS011;20031;43.416;23.232;2022-07-22T13:13:10;10.25;;;3.00;;
33696;SDS011;20031;43.416;23.232;2022-07-22T13:15:36;13.73;;;3.20;;
33696;SDS011;20031;43.416;23.232;2022-07-22T13:18:02;6.93;;;3.00;;
33696;SDS011;20031;43.416;23.232;2022-07-22T13:20:29;9.02;;;3.20;;
33696;SDS011;20031;43.416;23.232;2022-07-22T13:22:55;15.95;;;2.92;;
33696;SDS011;20031;43.416;23.232;2022-07-22T13:25:20;9.35;;;3.13;;
33696;SDS011;20031;43.416;23.232;2022-07-22T13:27:45;13.55;;;2.97;;
33696;SDS011;20031;43.416;23.232;2022-07-22T13:30:11;10.98;;;2.97;;
33696;SDS011;20031;43.416;23.232;2022-07-22T13:32:37;12.77;;;3.00;;
33696;SDS011;20031;43.416;23.232;2022-07-22T13:35:03;9.15;;;2.65;;
33696;SDS011;20031;43.416;23.232;2022-07-22T13:37:29;10.63;;;2.97;;
33696;SDS011;20031;43.416;23.232;2022-07-22T13:39:54;7.85;;;2.65;;
33696;SDS011;20031;43.416;23.232;2022-07-22T13:42:20;8.27;;;2.97;;
33696;SDS011;20031;43.416;23.232;2022-07-22T13:44:45;16.65;;;3.17;;
33696;SDS011;20031;43.416;23.232;2022-07-22T13:47:12;23.42;;;4.13;;
33696;SDS011;20031;43.416;23.232;2022-07-22T13:49:38;11.77;;;3.70;;
33696;SDS011;20031;43.416;23.232;2022-07-22T13:52:04;42.17;;;4.70;;
33696;SDS011;20031;43.416;23.232;2022-07-22T13:54:30;12.73;;;3.30;;
33696;SDS011;20031;43.416;23.232;2022-07-22T13:56:59;21.08;;;3.97;;
33696;SDS011;20031;43.416;23.232;2022-07-22T13:59:25;10.95;;;2.58;;
33696;SDS011;20031;43.416;23.232;2022-07-22T14:01:51;13.07;;;3.00;;
33696;SDS011;20031;43.416;23.232;2022-07-22T14:04:16;9.07;;;2.63;;
33696;SDS011;20031;43.416;23.232;2022-07-22T14:06:42;6.07;;;2.50;;
33696;SDS011;20031;43.416;23.232;2022-07-22T14:09:08;8.93;;;2.60;;
33696;SDS011;20031;43.416;23.232;2022-07-22T14:11:33;14.20;;;3.10;;
33696;SDS011;20031;43.416;23.232;2022-07-22T14:13:59;6.05;;;2.47;;
33696;SDS011;20031;43.416;23.232;2022-07-22T14:16:25;10.57;;;2.70;;
33696;SDS011;20031;43.416;23.232;2022-07-22T14:19:03;8.32;;;2.60;;
33696;SDS011;20031;43.416;23.232;2022-07-22T14:21:32;9.38;;;2.63;;
33696;SDS011;20031;43.416;23.232;2022-07-22T14:23:59;11.40;;;2.90;;
33696;SDS011;20031;43.416;23.232;2022-07-22T14:26:25;8.00;;;2.47;;
33696;SDS011;20031;43.416;23.232;2022-07-22T14:28:50;8.82;;;2.75;;
33696;SDS011;20031;43.416;23.232;2022-07-22T14:31:16;11.90;;;4.30;;
33696;SDS011;20031;43.416;23.232;2022-07-22T14:33:42;9.13;;;3.13;;
33696;SDS011;20031;43.416;23.232;2022-07-22T14:36:07;10.40;;;3.20;;
33696;SDS011;20031;43.416;23.232;2022-07-22T14:38:33;11.07;;;2.83;;
33696;SDS011;20031;43.416;23.232;2022-07-22T14:40:58;10.60;;;2.78;;
33696;SDS011;20031;43.416;23.232;2022-07-22T14:43:24;6.43;;;2.78;;